Time;durP1;ratioP1;P1;durP2;ratioP2;P2;SDS_P1;SDS_P2;PMS_P1;PMS_P2;Temp;Humidity;BMP_temperature;BMP_pressure;BME280_temperature;BME280_humidity;BME280_pressure;Samples;Min_cycle;Max_cycle;Signal;HPM_P1;HPM_P2
2023/01/06 00:00:04;;;;;;;2.33;1.10;;;;;;;11.05;54.11;101572.34;5076097;28;20056;-70
2023/01/06 00:02:32;;;;;;;3.40;1.20;;;;;;;11.04;54.06;101565.97;5082676;28;20040;-70
2023/01/06 00:05:00;;;;;;;2.38;1.17;;;;;;;11.04;53.67;101563.25;5083588;28;20134;-70
2023/01/06 00:07:28;;;;;;;2.83;1.23;;;;;;;11.04;53.82;101560.50;5080767;28;20040;-70
2023/01/06 00:09:56;;;;;;;2.53;1.20;;;;;;;11.03;53.53;101556.00;5081910;28;20500;-70
2023/01/06 00:12:26;;;;;;;2.90;1.00;;;;;;;11.05;53.47;101551.28;5077979;28;20047;-71
2023/01/06 00:14:54;;;;;;;1.88;1.10;;;;;;;11.04;53.45;101562.38;5083647;28;20048;-70
2023/01/06 00:17:22;;;;;;;3.30;1.42;;;;;;;11.04;53.70;101552.28;5082206;28;20423;-70
2023/01/06 00:19:50;;;;;;;3.15;1.10;;;;;;;11.03;53.33;101553.28;5084336;28;20055;-71
2023/01/06 00:22:18;;;;;;;1.98;0.80;;;;;;;11.02;53.85;101554.25;5083083;28;20511;-70
2023/01/06 00:24:46;;;;;;;2.80;1.15;;;;;;;11.03;53.62;101553.28;5085301;28;20050;-70
2023/01/06 00:27:14;;;;;;;2.22;0.88;;;;;;;11.02;53.50;101548.78;5081152;28;20043;-70
2023/01/06 00:29:43;;;;;;;2.25;1.15;;;;;;;11.05;53.35;101550.41;5083519;28;20059;-69
2023/01/06 00:32:11;;;;;;;2.85;1.30;;;;;;;11.03;53.51;101542.31;5083649;28;20058;-70
2023/01/06 00:34:38;;;;;;;2.78;1.10;;;;;;;11.02;53.40;101542.44;5066517;28;20527;-70
2023/01/06 00:37:06;;;;;;;3.05;1.25;;;;;;;11.03;53.84;101541.44;5086835;28;20040;-70
2023/01/06 00:39:34;;;;;;;2.10;1.10;;;;;;;11.02;53.77;101535.09;5086620;28;20051;-70
2023/01/06 00:42:05;;;;;;;2.85;1.17;;;;;;;11.03;53.16;101538.69;5068300;28;20051;-70
2023/01/06 00:44:35;;;;;;;2.78;0.93;;;;;;;11.03;53.57;101542.31;5081989;28;20050;-70
2023/01/06 00:47:06;;;;;;;2.08;0.90;;;;;;;11.04;53.66;101540.44;5091254;28;20051;-70
2023/01/06 00:49:34;;;;;;;2.75;1.20;;;;;;;11.03;53.42;101535.97;5069793;28;20393;-70
2023/01/06 00:52:02;;;;;;;3.15;1.25;;;;;;;11.02;53.56;101532.34;5088401;28;20766;-70
2023/01/06 00:54:30;;;;;;;1.83;1.00;;;;;;;11.02;53.80;101521.38;5084598;28;20039;-70
2023/01/06 00:56:58;;;;;;;1.70;1.10;;;;;;;11.03;53.63;101519.53;5087875;28;20048;-70
2023/01/06 00:59:26;;;;;;;2.22;1.00;;;;;;;11.03;53.86;101525.88;5067893;28;20462;-71
2023/01/06 01:01:56;;;;;;;3.33;1.10;;;;;;;11.03;53.70;101509.44;5083449;28;20040;-70
2023/01/06 01:04:26;;;;;;;2.17;1.10;;;;;;;11.03;53.16;101512.19;5069546;28;20098;-70
2023/01/06 01:06:55;;;;;;;3.78;1.38;;;;;;;11.02;53.25;101518.66;5068321;28;20040;-71
2023/01/06 01:09:24;;;;;;;2.47;1.00;;;;;;;11.02;53.58;101510.44;5067094;28;20056;-71
2023/01/06 01:12:12;;;;;;;2.28;1.30;;;;;;;11.02;53.47;101493.13;5085441;28;20059;-71
2023/01/06 01:14:45;;;;;;;2.90;1.08;;;;;;;11.01;53.63;101503.22;5074390;28;20059;-71
2023/01/06 01:17:18;;;;;;;3.13;1.15;;;;;;;11.01;53.48;101502.34;5084916;28;20066;-71
2023/01/06 01:19:49;;;;;;;4.57;1.23;;;;;;;10.99;53.07;101505.19;5085809;28;20127;-71
2023/01/06 01:22:17;;;;;;;2.20;1.13;;;;;;;10.97;53.14;101505.34;5069068;28;20052;-71
2023/01/06 01:24:45;;;;;;;1.40;1.00;;;;;;;10.98;53.60;101514.41;5083736;28;20036;-71
2023/01/06 01:27:13;;;;;;;2.65;1.25;;;;;;;10.98;53.28;101519.88;5068508;28;20110;-71
2023/01/06 01:29:41;;;;;;;3.63;1.13;;;;;;;10.96;53.30;101509.06;5085668;28;20500;-71
2023/01/06 01:32:09;;;;;;;1.80;1.20;;;;;;;10.97;53.42;101518.16;5068908;28;20374;-71
2023/01/06 01:34:38;;;;;;;2.85;1.10;;;;;;;10.96;53.43;101514.53;5086175;28;20421;-71
2023/01/06 01:37:07;;;;;;;2.83;1.17;;;;;;;10.98;53.62;101525.34;5065157;28;20044;-71
2023/01/06 01:39:35;;;;;;;1.90;0.95;;;;;;;10.96;53.48;101522.75;5076854;28;20536;-71
2023/01/06 01:42:04;;;;;;;2.00;1.20;;;;;;;10.96;53.06;101520.03;5080368;28;20036;-71
2023/01/06 01:44:55;;;;;;;2.72;1.10;;;;;;;10.97;53.38;101515.41;5078402;28;20114;-71
2023/01/06 01:47:31;;;;;;;1.65;0.90;;;;;;;10.96;53.46;101517.28;5082653;28;20072;-71
2023/01/06 01:50:02;;;;;;;1.50;1.00;;;;;;;10.97;53.16;101515.41;5064561;28;20497;-71
2023/01/06 01:52:33;;;;;;;1.95;1.23;;;;;;;10.96;53.23;101513.66;5087332;28;20488;-71
2023/01/06 01:55:02;;;;;;;2.58;1.20;;;;;;;10.96;52.81;101510.94;5062134;28;20048;-71
2023/01/06 01:57:39;;;;;;;2.65;1.00;;;;;;;10.97;52.67;101505.34;5077525;28;20166;-71
2023/01/06 02:00:09;;;;;;;2.05;1.00;;;;;;;10.95;52.61;101496.38;5083635;28;20048;-71
2023/01/06 02:02:41;;;;;;;1.40;0.90;;;;;;;10.93;52.82;101500.19;5081012;28;20477;-71
2023/01/06 02:05:12;;;;;;;1.60;1.00;;;;;;;10.95;52.76;101490.00;5083304;28;20047;-71
2023/01/06 02:07:42;;;;;;;1.88;1.00;;;;;;;10.94;52.60;101497.34;5067668;28;20044;-71
2023/01/06 02:10:13;;;;;;;4.28;0.90;;;;;;;10.94;52.68;101500.09;5083082;28;20052;-71
2023/01/06 02:12:41;;;;;;;2.35;1.25;;;;;;;10.93;52.75;101487.38;5062983;28;20046;-71
2023/01/06 02:15:22;;;;;;;1.58;0.95;;;;;;;10.95;52.55;101496.38;5081128;28;20047;-71
2023/01/06 02:18:22;;;;;;;1.48;0.82;;;;;;;10.91;52.75;101491.22;5062234;28;20059;-71
2023/01/06 02:21:12;;;;;;;2.50;0.98;;;;;;;10.93;52.38;101487.38;5056355;28;20075;-71
2023/01/06 02:24:23;;;;;;;1.48;0.80;;;;;;;10.91;52.61;101483.00;5062771;28;20040;-71
2023/01/06 02:27:08;;;;;;;2.30;0.80;;;;;;;10.93;52.47;101475.56;5058028;28;20040;-71
2023/01/06 02:30:07;;;;;;;1.83;1.00;;;;;;;10.88;52.64;101483.28;5058134;28;20036;-71
2023/01/06 02:32:47;;;;;;;2.38;1.10;;;;;;;10.92;52.07;101476.53;5057815;28;20037;-71
2023/01/06 02:35:35;;;;;;;3.17;0.95;;;;;;;10.93;51.92;101484.66;5080453;28;20040;-71
2023/01/06 02:38:13;;;;;;;1.38;1.00;;;;;;;10.91;52.33;101472.94;5066706;28;20500;-71
2023/01/06 02:40:54;;;;;;;2.72;1.10;;;;;;;10.92;51.81;101471.94;5078323;28;20501;-71
2023/01/06 02:43:27;;;;;;;2.53;1.08;;;;;;;10.92;51.89;101465.59;5086711;28;20036;-71
2023/01/06 02:46:10;;;;;;;2.38;1.20;;;;;;;10.92;51.52;101465.59;5058441;28;20044;-71
2023/01/06 02:48:49;;;;;;;2.50;1.10;;;;;;;10.89;52.17;101464.00;5054012;28;20047;-71
2023/01/06 02:51:24;;;;;;;2.05;1.00;;;;;;;10.91;51.82;101456.50;5088577;28;20040;-71
2023/01/06 02:54:06;;;;;;;2.15;1.10;;;;;;;10.92;51.33;101449.16;5064350;28;20063;-71
2023/01/06 02:56:39;;;;;;;1.90;0.80;;;;;;;10.92;51.65;101454.63;5083636;28;20056;-71
2023/01/06 02:59:14;;;;;;;1.75;0.93;;;;;;;10.91;51.20;101442.81;5065424;28;20061;-71
2023/01/06 03:01:46;;;;;;;1.90;1.00;;;;;;;10.91;51.28;101439.19;5061338;28;20043;-71
2023/01/06 03:04:20;;;;;;;2.28;1.00;;;;;;;10.92;50.56;101440.94;5096247;23;20666;-70
2023/01/06 03:06:51;;;;;;;1.25;0.77;;;;;;;10.92;51.05;101435.47;5061642;28;20052;-71
2023/01/06 03:09:24;;;;;;;2.35;0.90;;;;;;;10.91;50.68;101434.59;5070741;28;20044;-70
2023/01/06 03:11:52;;;;;;;2.75;0.90;;;;;;;10.88;50.94;101428.50;5064750;28;20429;-71
2023/01/06 03:14:25;;;;;;;1.98;0.80;;;;;;;10.92;49.94;101428.13;5061530;28;20130;-72
2023/01/06 03:16:54;;;;;;;2.15;0.95;;;;;;;10.92;50.50;101440.94;5074149;28;20131;-71
2023/01/06 03:19:25;;;;;;;1.70;0.80;;;;;;;10.93;49.92;101434.47;5063218;28;20690;-70
2023/01/06 03:21:54;;;;;;;1.95;1.40;;;;;;;10.93;49.90;101429.00;5067516;28;20532;-70
2023/01/06 03:24:23;;;;;;;1.48;0.75;;;;;;;10.92;50.33;101430.00;5064065;28;20151;-70
2023/01/06 03:26:53;;;;;;;1.55;0.65;;;;;;;10.93;50.44;101442.69;5055953;28;20316;-70
2023/01/06 03:29:23;;;;;;;2.05;0.68;;;;;;;10.92;50.15;101427.25;5065765;28;20052;-71
2023/01/06 03:32:01;;;;;;;3.20;0.85;;;;;;;10.95;49.07;101433.38;5066252;28;20062;-71
2023/01/06 03:35:01;;;;;;;3.55;1.10;;;;;;;10.93;49.68;101429.88;5064861;28;20047;-70
2023/01/06 03:37:41;;;;;;;3.60;1.20;;;;;;;10.93;49.60;101426.25;5065186;28;20044;-71
2023/01/06 03:40:15;;;;;;;4.82;1.20;;;;;;;10.93;50.32;101434.47;5061346;28;20074;-70
2023/01/06 03:45:49;;;;;;;2.90;1.52;;;;;;;10.93;49.32;101424.41;5080408;28;20616;-70
2023/01/06 03:48:26;;;;;;;3.13;1.10;;;;;;;10.93;49.92;101420.78;5063567;28;20044;-71
2023/01/06 03:51:01;;;;;;;2.35;0.90;;;;;;;10.93;49.60;101405.22;5066551;28;20451;-71
2023/01/06 03:53:41;;;;;;;1.63;0.80;;;;;;;10.95;49.70;101405.09;5066693;28;20052;-71
2023/01/06 03:56:19;;;;;;;1.67;0.82;;;;;;;10.95;49.70;101394.16;5065608;28;20063;-70
2023/01/06 03:58:53;;;;;;;2.30;0.70;;;;;;;10.94;49.70;101396.03;5061614;28;20101;-71
2023/01/06 04:01:23;;;;;;;2.13;0.80;;;;;;;10.94;49.94;101397.88;5057816;28;20131;-71
2023/01/06 04:03:53;;;;;;;2.70;0.80;;;;;;;10.92;49.92;101403.47;5064438;28;20044;-71
2023/01/06 04:06:24;;;;;;;2.85;0.88;;;;;;;10.93;49.81;101397.00;5076825;28;20689;-71
2023/01/06 04:08:52;;;;;;;2.72;0.80;;;;;;;10.93;49.87;101387.91;5066222;28;20040;-71
2023/01/06 04:14:08;;;;;;;0.88;0.60;;;;;;;10.91;50.07;101395.38;5059587;28;20478;-70
2023/01/06 04:16:35;;;;;;;2.22;0.70;;;;;;;10.91;49.93;101395.38;5064159;28;20048;-71
2023/01/06 04:19:04;;;;;;;3.60;0.93;;;;;;;10.93;49.98;101398.88;5059223;28;20481;-70
2023/01/06 04:21:33;;;;;;;3.35;0.73;;;;;;;10.94;50.10;101397.88;5065308;28;20036;-71
2023/01/06 04:24:01;;;;;;;1.88;0.80;;;;;;;10.92;50.19;101398.00;5079393;28;20040;-71
2023/01/06 04:26:29;;;;;;;2.35;0.88;;;;;;;10.92;50.15;101380.69;5063792;28;20048;-70
2023/01/06 04:28:57;;;;;;;2.97;0.80;;;;;;;10.93;50.04;101390.66;5076843;28;20040;-71
2023/01/06 04:31:24;;;;;;;3.90;0.90;;;;;;;10.93;49.77;101379.72;5058167;28;20048;-71
2023/01/06 04:33:54;;;;;;;2.10;0.88;;;;;;;10.93;49.68;101376.97;5064676;28;20504;-70
2023/01/06 04:36:22;;;;;;;1.58;0.98;;;;;;;10.93;49.60;101368.75;5064851;28;20044;-70
2023/01/06 04:38:54;;;;;;;2.45;0.80;;;;;;;10.94;49.84;101374.09;5060707;28;20109;-71
2023/01/06 04:41:22;;;;;;;2.00;0.90;;;;;;;10.92;49.50;101373.34;5083076;28;20040;-71
2023/01/06 04:43:50;;;;;;;4.05;1.00;;;;;;;10.92;49.43;101377.97;5080826;28;20032;-70
2023/01/06 04:46:18;;;;;;;2.55;0.70;;;;;;;10.93;49.90;101374.22;5079558;28;20124;-70
2023/01/06 04:48:46;;;;;;;3.60;0.88;;;;;;;10.93;49.82;101360.53;5060225;28;20040;-71
2023/01/06 04:51:13;;;;;;;2.53;0.80;;;;;;;10.92;49.71;101370.63;5074548;28;20052;-71
2023/01/06 04:53:41;;;;;;;1.75;0.80;;;;;;;10.93;49.61;101371.50;5075398;28;20028;-71
2023/01/06 04:56:12;;;;;;;2.35;0.65;;;;;;;10.95;49.40;101359.44;5082825;28;20464;-70
2023/01/06 04:58:40;;;;;;;3.55;1.00;;;;;;;10.93;49.48;101363.28;5080159;28;20166;-70
2023/01/06 05:01:10;;;;;;;1.65;0.68;;;;;;;10.94;49.17;101368.63;5081980;28;20411;-71
2023/01/06 05:03:38;;;;;;;3.40;0.85;;;;;;;10.94;49.46;101362.28;5071172;28;20554;-71
2023/01/06 05:06:09;;;;;;;1.70;0.80;;;;;;;10.94;49.16;101365.91;5078761;28;20079;-71
2023/01/06 05:08:37;;;;;;;1.42;0.73;;;;;;;10.94;49.56;101370.50;5080718;28;20079;-71
2023/01/06 05:11:08;;;;;;;2.80;0.90;;;;;;;10.95;49.19;101364.03;5076030;28;20496;-71
2023/01/06 05:13:37;;;;;;;1.88;1.05;;;;;;;10.95;49.07;101362.16;5076026;28;20128;-70
2023/01/06 05:16:07;;;;;;;2.72;1.20;;;;;;;10.95;49.09;101355.81;5066156;28;20136;-71
2023/01/06 05:18:35;;;;;;;4.18;1.17;;;;;;;10.94;48.88;101356.81;5059425;28;20091;-71
2023/01/06 05:21:03;;;;;;;2.20;0.90;;;;;;;10.94;49.15;101348.59;5056399;28;20487;-71
2023/01/06 05:23:31;;;;;;;2.75;1.40;;;;;;;10.94;49.23;101352.19;5079072;28;20044;-71
2023/01/06 05:25:59;;;;;;;3.28;1.00;;;;;;;10.94;48.91;101346.72;5066157;28;20101;-73
2023/01/06 05:28:29;;;;;;;3.20;1.30;;;;;;;10.95;49.21;101353.06;5086187;28;20043;-71
2023/01/06 05:31:00;;;;;;;3.50;1.42;;;;;;;10.96;48.65;101346.59;5080899;28;20106;-71
2023/01/06 05:33:28;;;;;;;2.47;1.20;;;;;;;10.94;48.95;101346.72;5084852;28;20040;-71
2023/01/06 05:35:59;;;;;;;2.42;1.17;;;;;;;10.96;48.77;101349.34;5067232;28;20040;-72
2023/01/06 05:38:27;;;;;;;2.72;1.25;;;;;;;10.94;49.29;101349.47;5085142;28;20032;-70
2023/01/06 05:40:56;;;;;;;4.05;1.30;;;;;;;10.94;49.27;101360.41;5085633;28;20054;-71
2023/01/06 05:43:26;;;;;;;2.20;0.98;;;;;;;10.95;48.75;101353.94;5076162;28;20035;-72
2023/01/06 05:45:54;;;;;;;2.30;0.93;;;;;;;10.94;48.72;101356.81;5089112;28;20044;-71
2023/01/06 05:48:26;;;;;;;2.92;0.90;;;;;;;10.94;48.40;101354.94;5065386;28;20063;-71
2023/01/06 05:51:01;;;;;;;1.60;0.82;;;;;;;10.94;48.26;101356.81;5084276;28;20123;-71
2023/01/06 05:53:32;;;;;;;1.83;0.80;;;;;;;10.93;48.62;101364.16;5070776;28;20044;-71
2023/01/06 05:56:01;;;;;;;2.08;0.90;;;;;;;10.93;48.67;101361.41;5083906;28;20048;-72
2023/01/06 05:58:29;;;;;;;1.73;0.70;;;;;;;10.91;49.02;101365.25;5075956;28;20044;-72
2023/01/06 06:00:57;;;;;;;1.88;0.60;;;;;;;10.91;49.00;101355.19;5083293;28;20230;-71
2023/01/06 06:03:26;;;;;;;2.95;0.80;;;;;;;10.94;48.66;101362.28;5086155;28;20044;-70
2023/01/06 06:05:55;;;;;;;2.65;0.70;;;;;;;10.93;48.93;101355.06;5085345;28;20071;-70
2023/01/06 06:08:22;;;;;;;1.48;0.70;;;;;;;10.92;49.11;101347.84;5085921;28;20040;-71
2023/01/06 06:10:50;;;;;;;1.60;0.52;;;;;;;10.92;48.97;101356.06;5083843;28;20044;-72
2023/01/06 06:13:18;;;;;;;1.08;0.50;;;;;;;10.92;48.52;101361.53;5065139;28;20044;-72
2023/01/06 06:15:46;;;;;;;1.33;0.45;;;;;;;10.91;48.64;101354.31;5073084;28;20097;-72
2023/01/06 06:18:14;;;;;;;1.25;0.50;;;;;;;10.91;48.60;101355.19;5088125;28;20040;-71
2023/01/06 06:20:43;;;;;;;2.17;0.80;;;;;;;10.93;48.94;101349.59;5079524;28;21324;-72
2023/01/06 06:23:11;;;;;;;1.40;0.60;;;;;;;10.92;49.06;101340.50;5083305;28;20032;-71
2023/01/06 06:25:38;;;;;;;1.55;0.68;;;;;;;10.91;49.04;101337.88;5067747;28;20504;-72
2023/01/06 06:28:06;;;;;;;2.15;0.60;;;;;;;10.92;48.69;101340.50;5063923;28;20039;-72
2023/01/06 06:30:34;;;;;;;1.55;0.57;;;;;;;10.91;49.05;101343.34;5085404;28;20050;-71
2023/01/06 06:33:02;;;;;;;1.00;0.60;;;;;;;10.91;49.04;101341.47;5087678;28;20036;-71
2023/01/06 06:35:30;;;;;;;1.75;0.80;;;;;;;10.90;48.56;101331.53;5084710;28;20036;-70
2023/01/06 06:37:59;;;;;;;2.45;0.82;;;;;;;10.92;48.87;101326.81;5082110;28;20051;-72
2023/01/06 06:40:27;;;;;;;2.10;0.98;;;;;;;10.91;49.02;101336.00;5082693;28;20048;-73
2023/01/06 06:42:55;;;;;;;2.45;1.10;;;;;;;10.91;48.61;101335.13;5084878;28;20055;-70
2023/01/06 06:45:23;;;;;;;2.85;1.30;;;;;;;10.91;48.66;101330.53;5090537;28;20359;-70
2023/01/06 06:47:53;;;;;;;3.13;1.20;;;;;;;10.92;48.70;101332.28;5082552;28;20036;-71
2023/01/06 06:50:21;;;;;;;2.75;1.10;;;;;;;10.91;48.74;101325.06;5075678;28;20130;-70
2023/01/06 06:52:49;;;;;;;2.85;1.17;;;;;;;10.91;49.08;101325.06;5085216;28;20036;-71
2023/01/06 06:55:18;;;;;;;1.90;1.00;;;;;;;10.93;48.81;101331.28;5083200;28;20041;-72
2023/01/06 06:57:46;;;;;;;2.00;0.98;;;;;;;10.92;48.69;101331.41;5091468;28;20067;-71
2023/01/06 07:00:15;;;;;;;2.03;0.90;;;;;;;10.93;48.94;101330.41;5081393;28;20442;-70
2023/01/06 07:02:43;;;;;;;1.65;0.90;;;;;;;10.93;48.40;101341.38;5082463;28;20044;-69
2023/01/06 07:05:11;;;;;;;1.67;0.95;;;;;;;10.92;48.76;101334.13;5084431;28;20535;-71
2023/01/06 07:07:39;;;;;;;1.17;0.70;;;;;;;10.93;48.73;101330.41;5066921;28;20044;-71
2023/01/06 07:10:07;;;;;;;1.08;0.60;;;;;;;10.93;48.46;101323.06;5076820;28;20535;-69
2023/01/06 07:12:36;;;;;;;2.35;0.90;;;;;;;10.94;48.82;101313.00;5083600;28;20044;-69
2023/01/06 07:15:05;;;;;;;2.25;0.80;;;;;;;10.93;48.60;101312.13;5071739;28;20491;-69
2023/01/06 07:17:33;;;;;;;2.55;1.23;;;;;;;10.93;48.72;101311.25;5067313;28;20404;-72
2023/01/06 07:20:01;;;;;;;1.52;0.73;;;;;;;10.94;48.58;101315.72;5079539;28;20109;-71
2023/01/06 07:22:29;;;;;;;1.77;0.90;;;;;;;10.92;48.84;101313.09;5076884;28;20036;-71
2023/01/06 07:24:56;;;;;;;2.03;0.80;;;;;;;10.92;48.70;101321.31;5081291;28;20044;-70
2023/01/06 07:27:24;;;;;;;1.75;0.70;;;;;;;10.93;48.56;101316.72;5084473;28;20043;-69
2023/01/06 07:29:54;;;;;;;0.60;0.50;;;;;;;10.94;48.78;101322.06;5085827;28;20116;-70
2023/01/06 07:32:21;;;;;;;1.08;0.70;;;;;;;10.92;48.81;101321.31;5086520;28;20073;-69
2023/01/06 07:34:49;;;;;;;2.13;0.80;;;;;;;10.92;48.41;101323.19;5079593;28;20040;-70
2023/01/06 07:37:17;;;;;;;2.10;0.85;;;;;;;10.93;48.46;101322.19;5057871;28;20115;-71
2023/01/06 07:39:45;;;;;;;1.67;0.80;;;;;;;10.92;48.33;101326.81;5072650;28;20052;-70
2023/01/06 07:42:13;;;;;;;2.20;0.90;;;;;;;10.92;48.45;101329.53;5066571;28;20493;-71
2023/01/06 07:44:41;;;;;;;1.38;0.80;;;;;;;10.92;48.53;101337.75;5063209;28;20382;-69
2023/01/06 07:47:10;;;;;;;1.70;1.00;;;;;;;10.94;48.18;101332.16;5067320;28;20059;-72
2023/01/06 07:49:38;;;;;;;1.52;0.80;;;;;;;10.92;48.38;101335.00;5068674;28;20138;-72
2023/01/06 07:52:06;;;;;;;2.67;1.00;;;;;;;10.92;48.68;101335.00;5069047;28;20045;-72
2023/01/06 07:54:34;;;;;;;1.13;0.80;;;;;;;10.92;49.02;101339.63;5052124;28;20509;-72
2023/01/06 07:57:02;;;;;;;1.75;0.98;;;;;;;10.93;48.72;101336.75;5080832;28;20562;-71
2023/01/06 07:59:29;;;;;;;1.92;0.93;;;;;;;10.93;48.63;101344.97;5083689;28;20048;-71
2023/01/06 08:01:57;;;;;;;2.08;0.98;;;;;;;10.93;48.78;101339.50;5064353;28;20047;-70
2023/01/06 08:04:27;;;;;;;1.90;1.00;;;;;;;10.96;48.31;101338.38;5086409;28;20054;-70
2023/01/06 08:06:55;;;;;;;2.50;1.00;;;;;;;10.95;48.43;101350.34;5082984;28;20040;-71
2023/01/06 08:09:22;;;;;;;1.50;0.80;;;;;;;10.96;48.78;101346.59;5082917;28;20504;-70
2023/01/06 08:11:50;;;;;;;3.50;1.30;;;;;;;10.97;48.76;101349.22;5060814;28;20492;-71
2023/01/06 08:14:18;;;;;;;2.38;0.88;;;;;;;10.97;48.19;101343.75;5078908;28;20055;-70
2023/01/06 08:16:46;;;;;;;2.90;0.90;;;;;;;10.98;48.97;101345.47;5079834;28;20096;-70
2023/01/06 08:19:14;;;;;;;1.27;0.73;;;;;;;10.98;48.28;101352.81;5083448;28;20044;-72
2023/01/06 08:21:43;;;;;;;1.63;0.70;;;;;;;11.00;48.75;101353.56;5060885;28;20040;-71
2023/01/06 08:24:11;;;;;;;1.05;0.70;;;;;;;10.98;48.41;101359.16;5061056;28;20382;-70
2023/01/06 08:26:39;;;;;;;0.80;0.50;;;;;;;11.00;48.49;101356.28;5058019;28;20048;-70
2023/01/06 08:29:07;;;;;;;1.70;0.57;;;;;;;10.99;48.41;101358.16;5068721;28;20067;-70
2023/01/06 08:31:35;;;;;;;1.67;0.50;;;;;;;11.00;48.47;101367.25;5066101;28;20056;-70
2023/01/06 08:34:04;;;;;;;0.60;0.47;;;;;;;10.99;48.96;101373.72;5066704;28;20054;-67
2023/01/06 08:36:32;;;;;;;0.80;0.50;;;;;;;11.01;48.81;101379.97;5081444;28;20519;-67
2023/01/06 08:39:01;;;;;;;2.47;0.70;;;;;;;11.04;48.95;101378.84;5086429;28;20121;-67
2023/01/06 08:41:29;;;;;;;1.63;0.43;;;;;;;11.04;48.96;101365.16;5083667;28;20047;-72
2023/01/06 08:43:57;;;;;;;0.75;0.50;;;;;;;11.06;49.11;101377.69;5072467;28;20051;-71
2023/01/06 08:46:25;;;;;;;0.43;0.43;;;;;;;11.09;49.21;101379.31;5082025;28;20044;-72
2023/01/06 08:48:55;;;;;;;0.57;0.30;;;;;;;11.12;49.12;101390.03;5082358;28;20107;-72
2023/01/06 08:51:24;;;;;;;1.60;0.50;;;;;;;11.13;48.86;101380.84;5079171;28;20052;-72
2023/01/06 08:53:52;;;;;;;0.88;0.45;;;;;;;11.13;48.59;101378.97;5075494;28;20032;-72
2023/01/06 08:56:24;;;;;;;1.58;0.65;;;;;;;11.16;48.91;101386.91;5081784;28;20500;-72
2023/01/06 08:58:53;;;;;;;0.63;0.43;;;;;;;11.16;48.67;101386.03;5085734;28;20506;-72
2023/01/06 09:01:23;;;;;;;0.43;0.38;;;;;;;11.16;49.02;101397.00;5086568;28;20408;-72
2023/01/06 09:04:18;;;;;;;1.05;0.50;;;;;;;11.13;48.79;101395.41;5106180;22;20120;-82
2023/01/06 09:07:11;;;;;;;1.17;0.70;;;;;;;11.12;49.12;101398.25;5048309;28;20048;-82
2023/01/06 09:09:51;;;;;;;0.88;0.60;;;;;;;11.14;48.60;101402.59;5009627;28;20051;-81
2023/01/06 09:16:05;;;;;;;0.90;0.60;;;;;;;11.12;49.05;101406.47;4978485;28;20042;-84
2023/01/06 09:18:36;;;;;;;0.68;0.50;;;;;;;11.10;49.29;101406.59;5002005;28;20092;-84
2023/01/06 09:21:09;;;;;;;1.65;0.50;;;;;;;11.14;48.96;101412.72;5014365;28;20053;-84
2023/01/06 09:23:38;;;;;;;0.68;0.40;;;;;;;11.10;49.60;101409.34;5012952;28;20068;-84
2023/01/06 09:29:39;;;;;;;1.10;0.40;;;;;;;11.11;49.39;101427.53;5034689;28;20535;-84
2023/01/06 09:32:46;;;;;;;1.10;0.47;;;;;;;11.09;49.92;101439.59;5013107;28;20057;-84
2023/01/06 09:35:17;;;;;;;0.95;0.40;;;;;;;11.07;49.75;101420.53;5026670;28;20045;-84
2023/01/06 09:41:18;;;;;;;0.45;0.40;;;;;;;11.08;50.05;101426.88;5021915;28;20045;-82
2023/01/06 09:51:35;;;;;;;0.95;0.40;;;;;;;11.01;50.25;101445.69;5027572;28;20069;-84
2023/01/06 09:54:25;;;;;;;1.15;0.43;;;;;;;11.02;50.06;101441.97;5012607;28;20073;-83
2023/01/06 09:57:15;;;;;;;1.95;0.50;;;;;;;11.01;50.64;101437.47;5012250;28;20041;-84
2023/01/06 09:59:50;;;;;;;1.67;0.50;;;;;;;11.03;50.86;101442.84;5010792;28;20045;-85
2023/01/06 10:02:47;;;;;;;0.85;0.40;;;;;;;11.03;50.52;101442.84;5008003;28;20073;-83
2023/01/06 10:05:22;;;;;;;0.90;0.43;;;;;;;11.03;50.32;101440.09;5023461;28;20511;-83
2023/01/06 10:08:03;;;;;;;0.30;0.28;;;;;;;11.05;51.31;101438.97;5028181;28;20436;-83
2023/01/06 10:10:47;;;;;;;0.35;0.30;;;;;;;11.06;51.06;101448.06;5026755;28;20049;-83
2023/01/06 10:13:41;;;;;;;0.43;0.38;;;;;;;11.05;51.43;101449.06;5023243;28;20401;-84
2023/01/06 10:16:25;;;;;;;0.20;0.20;;;;;;;11.05;51.37;101454.53;5025143;28;20144;-84
2023/01/06 10:19:01;;;;;;;1.25;0.60;;;;;;;11.04;51.36;101464.63;5010361;28;20140;-84
2023/01/06 10:21:59;;;;;;;0.63;0.30;;;;;;;11.06;51.39;101467.25;5015441;28;20034;-83
2023/01/06 10:28:37;;;;;;;0.88;0.55;;;;;;;11.01;51.64;101469.47;4933720;29;20145;-84
2023/01/06 10:32:04;;;;;;;0.47;0.40;;;;;;;11.01;51.74;101458.50;4976207;28;20533;-83
2023/01/06 10:34:51;;;;;;;0.60;0.40;;;;;;;11.00;51.38;101465.84;5028248;28;20038;-84
2023/01/06 10:37:26;;;;;;;0.90;0.40;;;;;;;11.02;51.56;101458.41;5030040;28;20038;-84
2023/01/06 10:43:46;;;;;;;0.65;0.40;;;;;;;10.99;52.21;101458.63;5011854;28;20062;-83
2023/01/06 10:46:15;;;;;;;0.88;0.40;;;;;;;11.00;51.66;101454.91;5024642;28;20107;-69
2023/01/06 10:48:45;;;;;;;0.70;0.45;;;;;;;11.01;51.50;101458.50;5027140;28;20101;-70
2023/01/06 10:51:34;;;;;;;0.70;0.43;;;;;;;11.03;52.21;101457.41;5027612;28;20048;-70
2023/01/06 10:54:08;;;;;;;1.10;0.40;;;;;;;11.01;51.98;101466.72;5026044;28;20049;-70
2023/01/06 10:56:39;;;;;;;0.82;0.50;;;;;;;11.02;52.41;101452.03;5026891;28;20853;-70
2023/01/06 10:59:09;;;;;;;0.70;0.50;;;;;;;11.04;51.68;101461.00;5026821;28;20037;-69
2023/01/06 11:01:48;;;;;;;1.83;0.60;;;;;;;11.06;52.26;101461.78;5026274;28;20050;-69
2023/01/06 11:04:18;;;;;;;1.48;0.60;;;;;;;11.03;51.87;101451.91;5026488;28;20383;-70
2023/01/06 11:06:50;;;;;;;1.10;0.55;;;;;;;11.07;52.06;101449.78;5027051;28;20534;-69
2023/01/06 11:09:31;;;;;;;0.65;0.50;;;;;;;11.06;52.52;101448.91;5027126;28;20129;-71
2023/01/06 11:12:08;;;;;;;0.95;0.50;;;;;;;11.07;52.13;101456.16;5029769;28;20144;-69
2023/01/06 11:14:37;;;;;;;1.10;0.63;;;;;;;11.05;52.48;101438.09;4997873;28;20046;-69
2023/01/06 11:17:09;;;;;;;1.67;0.60;;;;;;;11.07;52.36;101450.66;5009126;28;20040;-70
2023/01/06 11:19:39;;;;;;;0.43;0.40;;;;;;;11.07;52.37;101447.94;5018781;28;20100;-70
2023/01/06 11:22:33;;;;;;;0.95;0.60;;;;;;;11.10;52.71;101441.34;5027947;28;20502;-70
2023/01/06 11:25:02;;;;;;;1.42;0.75;;;;;;;11.11;52.93;101434.88;5024135;28;20168;-70
2023/01/06 11:27:31;;;;;;;0.57;0.50;;;;;;;11.16;52.38;101444.44;5023079;28;20033;-70
2023/01/06 11:30:08;;;;;;;0.47;0.47;;;;;;;11.16;52.35;101441.72;5025877;28;20457;-70
2023/01/06 11:32:36;;;;;;;0.85;0.52;;;;;;;11.18;52.74;101442.47;5014095;28;20046;-70
2023/01/06 11:35:07;;;;;;;1.45;0.60;;;;;;;11.23;52.08;101453.91;5020131;28;20369;-70
2023/01/06 11:37:38;;;;;;;0.95;0.65;;;;;;;11.25;52.24;101442.84;5019625;28;20041;-70
2023/01/06 11:40:19;;;;;;;1.20;0.60;;;;;;;11.29;52.49;101442.47;5008485;28;20073;-71
2023/01/06 11:42:51;;;;;;;1.60;0.80;;;;;;;11.29;52.65;101431.50;5027246;28;20041;-70
2023/01/06 11:45:33;;;;;;;1.08;0.60;;;;;;;11.32;52.80;101438.59;5012827;28;20072;-69
2023/01/06 11:48:02;;;;;;;0.95;0.65;;;;;;;11.34;52.68;101431.13;5027039;28;20352;-70
2023/01/06 11:50:31;;;;;;;1.00;0.70;;;;;;;11.36;52.59;101427.28;5024742;28;20077;-71
2023/01/06 11:53:00;;;;;;;0.93;0.70;;;;;;;11.43;52.41;101426.75;5025359;28;20072;-70
2023/01/06 11:55:29;;;;;;;1.75;0.65;;;;;;;11.47;52.94;101431.00;5025564;28;20510;-69
2023/01/06 11:58:04;;;;;;;0.85;0.70;;;;;;;11.53;52.46;101425.00;5025827;28;20060;-69
2023/01/06 12:00:40;;;;;;;1.80;1.40;;;;;;;11.60;52.50;101434.47;5014990;28;20052;-69
2023/01/06 12:03:16;;;;;;;3.40;0.93;;;;;;;11.63;52.16;101431.50;5023274;28;20048;-69
2023/01/06 12:05:50;;;;;;;1.80;0.70;;;;;;;11.68;52.03;101430.13;5019573;28;20099;-69
2023/01/06 12:08:23;;;;;;;1.45;0.60;;;;;;;11.72;52.08;101430.72;5021941;28;20065;-71
2023/01/06 12:10:54;;;;;;;0.90;0.60;;;;;;;11.74;51.65;101426.84;5027466;28;20441;-70
2023/01/06 12:13:25;;;;;;;1.50;0.60;;;;;;;11.79;52.03;101421.00;5014821;28;20044;-69
2023/01/06 12:16:01;;;;;;;1.00;0.65;;;;;;;11.85;51.78;101430.56;5024150;28;20061;-69
2023/01/06 12:18:32;;;;;;;1.77;0.70;;;;;;;11.87;52.00;101423.97;5020987;28;20042;-69